createdAt,value
2019-05-22T00:00:29.818Z,9.20
2019-05-22T00:03:03.071Z,9.17
2019-05-22T00:05:33.115Z,9.67
2019-05-22T00:08:03.383Z,9.87
2019-05-22T00:10:33.916Z,9.37
2019-05-22T00:13:04.193Z,9.37
2019-05-22T00:15:34.716Z,8.97
2019-05-22T00:18:06.843Z,10.17
2019-05-22T00:20:36.104Z,9.53
2019-05-22T00:23:07.844Z,9.00
2019-05-22T00:25:38.090Z,8.87
2019-05-22T00:28:06.998Z,9.27
2019-05-22T00:30:40.565Z,8.43
2019-05-22T00:33:10.537Z,9.00
2019-05-22T00:35:41.685Z,9.20
2019-05-22T00:38:11.718Z,9.17
2019-05-22T00:40:44.776Z,8.17
2019-05-22T00:43:17.182Z,8.90
2019-05-22T00:45:48.918Z,9.00
2019-05-22T00:48:21.055Z,9.17
2019-05-22T00:51:04.219Z,8.97
2019-05-22T00:53:49.799Z,7.87
2019-05-22T00:56:29.402Z,6.73
2019-05-22T00:59:00.320Z,8.57
2019-05-22T01:01:39.771Z,7.97
2019-05-22T01:04:09.890Z,8.43
2019-05-22T01:06:38.771Z,7.77
2019-05-22T01:09:10.017Z,8.20
2019-05-22T01:11:40.265Z,8.30
2019-05-22T01:14:09.483Z,8.60
2019-05-22T01:16:39.635Z,8.60
2019-05-22T01:19:08.399Z,8.90
2019-05-22T01:21:38.316Z,8.00
2019-05-22T01:24:07.753Z,9.17
2019-05-22T01:26:36.863Z,9.83
2019-05-22T01:29:08.247Z,10.00
2019-05-22T01:31:41.233Z,10.33
2019-05-22T01:34:15.929Z,10.80
2019-05-22T01:36:49.562Z,11.57
2019-05-22T01:39:25.762Z,12.33
2019-05-22T01:41:57.090Z,12.90
2019-05-22T01:44:27.295Z,13.47
2019-05-22T01:46:58.281Z,14.27
2019-05-22T01:49:27.617Z,14.00
2019-05-22T01:51:56.148Z,14.57
2019-05-22T01:54:25.845Z,14.53
2019-05-22T01:56:56.382Z,14.90
2019-05-22T01:59:26.535Z,14.47
2019-05-22T02:01:56.804Z,15.20
2019-05-22T02:04:26.827Z,16.80
2019-05-22T02:06:57.106Z,16.00
2019-05-22T02:09:33.430Z,14.13
2019-05-22T02:12:12.214Z,17.03
2019-05-22T02:14:44.536Z,15.97
2019-05-22T02:17:15.604Z,15.63
2019-05-22T02:19:44.859Z,16.77
2019-05-22T02:22:15.218Z,16.07
2019-05-22T02:24:45.286Z,15.23
2019-05-22T02:27:14.483Z,16.97
2019-05-22T02:29:44.676Z,15.80
2019-05-22T02:32:13.782Z,18.27
2019-05-22T02:34:44.127Z,17.30
2019-05-22T02:37:13.108Z,17.17
2019-05-22T02:39:42.903Z,18.77
2019-05-22T02:42:20.560Z,18.60
2019-05-22T02:44:50.237Z,17.83
2019-05-22T02:47:21.559Z,18.47
2019-05-22T02:49:51.594Z,17.40
2019-05-22T02:52:22.093Z,17.73
2019-05-22T02:54:50.665Z,16.90
2019-05-22T02:57:19.207Z,16.43
2019-05-22T02:59:47.812Z,17.20
2019-05-22T03:02:18.076Z,17.13
2019-05-22T03:04:56.045Z,17.17
2019-05-22T03:07:26.645Z,16.87
2019-05-22T03:09:55.537Z,17.17
2019-05-22T03:12:26.540Z,18.20
2019-05-22T03:14:55.069Z,17.33
2019-05-22T03:17:30.333Z,17.63
2019-05-22T03:20:01.122Z,17.93
2019-05-22T03:22:42.101Z,17.43
2019-05-22T03:25:13.155Z,17.40
2019-05-22T03:27:50.197Z,17.33
2019-05-22T03:30:32.630Z,16.03
2019-05-22T03:33:05.028Z,17.50
2019-05-22T03:35:46.089Z,17.43
2019-05-22T03:38:16.133Z,17.40
2019-05-22T03:40:45.848Z,16.23
2019-05-22T03:43:22.663Z,16.07
2019-05-22T03:45:52.028Z,14.97
2019-05-22T03:48:22.552Z,13.63
2019-05-22T03:50:54.523Z,13.40
2019-05-22T03:53:26.292Z,14.27
2019-05-22T03:55:55.758Z,13.30
2019-05-22T03:58:24.732Z,16.00
2019-05-22T04:00:55.786Z,14.70
2019-05-22T04:03:26.248Z,14.53
2019-05-22T04:05:55.978Z,16.67
2019-05-22T04:08:26.435Z,15.53
2019-05-22T04:11:01.993Z,17.60
2019-05-22T04:13:32.261Z,17.90
2019-05-22T04:16:04.435Z,15.87
2019-05-22T04:18:33.041Z,16.03
2019-05-22T04:21:03.227Z,16.37
2019-05-22T04:23:32.239Z,14.10
2019-05-22T04:26:01.717Z,15.40
2019-05-22T04:28:31.165Z,12.90
2019-05-22T04:31:03.112Z,14.00
2019-05-22T04:33:31.743Z,14.00
2019-05-22T04:36:01.880Z,13.67
2019-05-22T04:38:31.531Z,13.90
2019-05-22T04:41:01.547Z,13.00
2019-05-22T04:43:32.499Z,11.57
2019-05-22T04:46:01.403Z,12.23
2019-05-22T04:48:31.354Z,13.23
2019-05-22T04:51:04.567Z,12.07
2019-05-22T04:53:34.308Z,12.60
2019-05-22T04:56:03.381Z,12.13
2019-05-22T04:58:31.929Z,13.70
2019-05-22T05:01:00.472Z,14.17
2019-05-22T05:03:29.303Z,15.53
2019-05-22T05:05:58.897Z,14.27
2019-05-22T05:08:27.519Z,14.23
2019-05-22T05:10:56.047Z,13.93
2019-05-22T05:13:26.491Z,14.17
2019-05-22T05:15:54.956Z,13.07
2019-05-22T05:18:23.496Z,14.20
2019-05-22T05:20:52.109Z,13.80
2019-05-22T05:23:21.395Z,13.10
2019-05-22T05:25:50.544Z,13.27
2019-05-22T05:28:19.296Z,13.20
2019-05-22T05:30:48.027Z,13.10
2019-05-22T05:33:16.711Z,13.67
2019-05-22T05:35:45.326Z,13.50
2019-05-22T05:38:15.859Z,13.53
2019-05-22T05:40:45.390Z,13.43
2019-05-22T05:43:15.557Z,13.87
2019-05-22T05:45:47.123Z,13.47
2019-05-22T05:48:21.015Z,13.23
2019-05-22T05:51:08.630Z,11.93
2019-05-22T05:53:55.312Z,12.03
2019-05-22T05:56:25.601Z,11.20
2019-05-22T05:58:54.947Z,11.47
2019-05-22T06:01:25.644Z,10.83
2019-05-22T06:03:54.475Z,10.17
2019-05-22T06:06:27.117Z,10.07
2019-05-22T06:09:00.007Z,10.60
2019-05-22T06:11:35.727Z,10.40
2019-05-22T06:14:06.222Z,10.17
2019-05-22T06:16:57.172Z,9.53
2019-05-22T06:19:28.467Z,9.70
2019-05-22T06:21:59.235Z,9.90
2019-05-22T06:24:40.236Z,9.23
2019-05-22T06:27:15.148Z,9.17
2019-05-22T06:30:05.074Z,9.60
2019-05-22T06:32:55.623Z,9.30
2019-05-22T06:35:26.125Z,8.47
2019-05-22T06:38:03.826Z,9.23
2019-05-22T06:40:33.290Z,8.80
2019-05-22T06:43:25.004Z,9.20
2019-05-22T06:45:55.606Z,8.37
2019-05-22T06:48:24.335Z,8.70
2019-05-22T06:50:52.935Z,9.00
2019-05-22T06:53:21.590Z,8.03
2019-05-22T06:55:50.819Z,9.17
2019-05-22T06:58:19.633Z,9.50
2019-05-22T07:00:49.038Z,9.47
2019-05-22T07:03:17.793Z,9.30
2019-05-22T07:05:46.642Z,9.03
2019-05-22T07:08:17.717Z,8.70
2019-05-22T07:10:46.450Z,9.67
2019-05-22T07:13:14.896Z,9.07
2019-05-22T07:15:44.004Z,9.83
2019-05-22T07:18:15.296Z,8.80
2019-05-22T07:20:46.579Z,9.17
2019-05-22T07:23:18.931Z,8.60
2019-05-22T07:25:49.151Z,8.10
2019-05-22T07:28:19.465Z,9.23
2019-05-22T07:30:48.791Z,8.90
2019-05-22T07:33:18.763Z,8.93
2019-05-22T07:36:07.673Z,8.53
2019-05-22T07:38:19.572Z,8.60
2019-05-22T07:40:50.461Z,8.97
2019-05-22T07:43:20.358Z,8.93
2019-05-22T07:45:49.511Z,9.47
2019-05-22T07:48:18.743Z,8.50
2019-05-22T07:50:49.661Z,9.20
2019-05-22T07:53:18.389Z,8.67
2019-05-22T07:55:48.984Z,8.80
2019-05-22T07:58:18.442Z,8.67
2019-05-22T08:00:50.814Z,8.13
2019-05-22T08:03:21.542Z,9.20
2019-05-22T08:05:54.954Z,8.90
2019-05-22T08:08:25.038Z,8.83
2019-05-22T08:10:55.304Z,9.33
2019-05-22T08:13:24.551Z,9.00
2019-05-22T08:15:53.111Z,8.60
2019-05-22T08:18:22.408Z,8.13
2019-05-22T08:20:51.151Z,9.10
2019-05-22T08:23:19.788Z,7.93
2019-05-22T08:25:48.511Z,8.67
2019-05-22T08:28:19.897Z,9.33
2019-05-22T08:30:49.299Z,9.27
2019-05-22T08:33:19.922Z,9.50
2019-05-22T08:35:48.563Z,10.33
2019-05-22T08:38:18.724Z,9.70
2019-05-22T08:40:48.915Z,9.67
2019-05-22T08:43:18.303Z,9.73
2019-05-22T08:45:47.695Z,8.83
2019-05-22T08:48:17.512Z,9.40
2019-05-22T08:50:47.298Z,9.53
2019-05-22T08:53:16.550Z,9.37
2019-05-22T08:55:45.341Z,8.77
2019-05-22T08:58:15.731Z,8.83
2019-05-22T09:00:45.237Z,8.50
2019-05-22T09:03:14.805Z,9.83
2019-05-22T09:05:44.881Z,7.80
2019-05-22T09:08:13.490Z,9.73
2019-05-22T09:10:42.415Z,8.77
2019-05-22T09:13:11.009Z,9.07
2019-05-22T09:15:40.716Z,9.80
2019-05-22T09:18:09.294Z,9.93
2019-05-22T09:20:48.960Z,11.37
2019-05-22T09:23:09.762Z,10.90
2019-05-22T09:25:38.383Z,10.83
2019-05-22T09:28:07.427Z,10.40
2019-05-22T09:30:36.008Z,11.23
2019-05-22T09:33:04.543Z,12.00
2019-05-22T09:35:33.098Z,11.80
2019-05-22T09:38:01.799Z,10.53
2019-05-22T09:40:31.603Z,10.77
2019-05-22T09:43:01.988Z,11.23
2019-05-22T09:45:31.045Z,11.80
2019-05-22T09:47:59.691Z,11.23
2019-05-22T09:50:29.122Z,11.73
2019-05-22T09:52:58.431Z,10.90
2019-05-22T09:55:27.127Z,11.97
2019-05-22T09:57:55.781Z,10.83
2019-05-22T10:00:25.084Z,10.67
2019-05-22T10:02:53.849Z,10.87
2019-05-22T10:05:22.618Z,11.63
2019-05-22T10:08:00.647Z,10.73
2019-05-22T10:10:22.561Z,10.93
2019-05-22T10:12:51.539Z,11.20
2019-05-22T10:15:21.126Z,11.23
2019-05-22T10:17:50.084Z,9.63
2019-05-22T10:20:20.559Z,9.90
2019-05-22T10:22:49.475Z,9.37
2019-05-22T10:25:18.449Z,8.93
2019-05-22T10:27:47.928Z,8.77
2019-05-22T10:30:20.869Z,9.17
2019-05-22T10:32:49.957Z,9.93
2019-05-22T10:35:22.944Z,9.60
2019-05-22T10:37:52.237Z,8.10
2019-05-22T10:40:25.169Z,8.13
2019-05-22T10:42:54.101Z,7.90
2019-05-22T10:45:22.698Z,7.90
2019-05-22T10:47:51.164Z,7.90
2019-05-22T10:50:20.606Z,7.80
2019-05-22T10:52:53.951Z,7.83
2019-05-22T10:55:21.407Z,8.90
2019-05-22T10:57:49.894Z,8.63
2019-05-22T11:00:20.829Z,7.97
2019-05-22T11:02:49.566Z,7.97
2019-05-22T11:05:20.752Z,7.60
2019-05-22T11:07:50.436Z,8.47
2019-05-22T11:10:21.039Z,7.40
2019-05-22T11:12:50.705Z,6.73
2019-05-22T11:15:19.617Z,6.30
2019-05-22T11:17:48.301Z,6.60
2019-05-22T11:20:17.241Z,6.87
2019-05-22T11:22:45.771Z,6.83
2019-05-22T11:25:15.927Z,5.00
2019-05-22T11:27:45.398Z,4.93
2019-05-22T11:30:16.567Z,4.97
2019-05-22T11:32:45.964Z,4.77
2019-05-22T11:35:15.717Z,4.20
2019-05-22T11:37:44.242Z,4.97
2019-05-22T11:40:14.592Z,3.87
2019-05-22T11:42:43.208Z,4.30
2019-05-22T11:45:13.149Z,4.40
2019-05-22T11:47:42.046Z,4.60
2019-05-22T11:50:12.698Z,4.53
2019-05-22T11:52:42.138Z,5.27
2019-05-22T11:55:14.339Z,4.50
2019-05-22T11:57:43.688Z,4.47
2019-05-22T12:00:14.589Z,4.80
2019-05-22T12:02:45.178Z,4.60
2019-05-22T12:05:15.420Z,4.80
2019-05-22T12:07:44.606Z,4.40
2019-05-22T12:10:14.760Z,5.03
2019-05-22T12:12:44.664Z,4.43
2019-05-22T12:15:15.019Z,5.40
2019-05-22T12:17:43.940Z,5.07
2019-05-22T12:20:14.735Z,4.50
2019-05-22T12:22:43.656Z,4.60
2019-05-22T12:25:13.742Z,4.43
2019-05-22T12:27:42.376Z,3.73
2019-05-22T12:30:12.138Z,3.33
2019-05-22T12:32:41.879Z,4.20
2019-05-22T12:35:12.154Z,3.80
2019-05-22T12:37:41.655Z,3.83
2019-05-22T12:40:13.177Z,3.63
2019-05-22T12:42:41.852Z,4.33
2019-05-22T12:45:12.819Z,3.47
2019-05-22T12:47:43.044Z,3.77
2019-05-22T12:50:15.536Z,4.10
2019-05-22T12:52:47.297Z,3.70
2019-05-22T12:55:41.460Z,3.13
2019-05-22T12:58:10.951Z,3.13
2019-05-22T13:00:39.990Z,3.20
2019-05-22T13:03:09.209Z,3.57
2019-05-22T13:05:39.446Z,3.03
2019-05-22T13:08:09.365Z,3.97
2019-05-22T13:10:38.989Z,3.60
2019-05-22T13:13:07.859Z,3.40
2019-05-22T13:15:37.766Z,3.67
2019-05-22T13:18:08.249Z,3.60
2019-05-22T13:20:42.914Z,3.70
2019-05-22T13:23:10.964Z,4.00
2019-05-22T13:25:41.308Z,2.87
2019-05-22T13:28:12.351Z,2.90
2019-05-22T13:30:42.866Z,2.63
2019-05-22T13:33:15.999Z,2.87
2019-05-22T13:35:45.594Z,3.17
2019-05-22T13:38:14.293Z,2.80
2019-05-22T13:40:44.388Z,3.10
2019-05-22T13:43:13.180Z,2.70
2019-05-22T13:45:42.196Z,2.73
2019-05-22T13:48:11.356Z,3.20
2019-05-22T13:50:40.423Z,2.77
2019-05-22T13:53:10.807Z,3.33
2019-05-22T13:55:39.718Z,3.00
2019-05-22T13:58:09.018Z,3.37
2019-05-22T14:00:38.572Z,3.17
2019-05-22T14:03:07.097Z,3.67
2019-05-22T14:05:36.530Z,3.13
2019-05-22T14:08:06.171Z,3.20
2019-05-22T14:10:35.255Z,3.00
2019-05-22T14:13:04.730Z,2.60
2019-05-22T14:15:48.903Z,2.87
2019-05-22T14:18:03.791Z,3.00
2019-05-22T14:20:32.526Z,2.83
2019-05-22T14:23:01.093Z,3.37
2019-05-22T14:25:30.652Z,2.83
2019-05-22T14:27:59.455Z,2.80
2019-05-22T14:30:29.493Z,2.50
2019-05-22T14:33:03.848Z,2.50
2019-05-22T14:35:46.868Z,2.83
2019-05-22T14:38:01.820Z,3.13
2019-05-22T14:40:32.409Z,3.00
2019-05-22T14:43:01.374Z,2.83
2019-05-22T14:45:30.537Z,3.70
2019-05-22T14:47:59.055Z,3.20
2019-05-22T14:50:32.693Z,2.90
2019-05-22T14:53:00.042Z,2.80
2019-05-22T14:55:29.972Z,3.10
2019-05-22T14:57:58.680Z,2.97
2019-05-22T15:00:27.970Z,2.60
2019-05-22T15:02:58.856Z,3.37
2019-05-22T15:05:26.976Z,3.30
2019-05-22T15:07:55.488Z,3.13
2019-05-22T15:10:26.766Z,3.20
2019-05-22T15:12:56.167Z,3.23
2019-05-22T15:15:25.263Z,3.30
2019-05-22T15:17:53.893Z,3.47
2019-05-22T15:20:26.678Z,3.07
2019-05-22T15:22:56.515Z,3.53
2019-05-22T15:25:26.863Z,2.90
2019-05-22T15:27:55.455Z,2.17
2019-05-22T15:30:24.451Z,2.67
2019-05-22T15:32:53.311Z,2.90
2019-05-22T15:35:22.356Z,2.53
2019-05-22T15:37:51.080Z,2.40
2019-05-22T15:40:20.163Z,2.80
2019-05-22T15:42:48.908Z,2.53
2019-05-22T15:45:23.532Z,2.57
2019-05-22T15:47:56.536Z,2.67
2019-05-22T15:50:30.347Z,2.47
2019-05-22T15:53:03.906Z,3.03
2019-05-22T15:55:34.102Z,2.40
2019-05-22T15:58:05.299Z,2.30
2019-05-22T16:00:36.627Z,3.07
2019-05-22T16:03:17.716Z,2.77
2019-05-22T16:05:48.128Z,2.20
2019-05-22T16:08:17.391Z,2.40
2019-05-22T16:10:47.423Z,2.33
2019-05-22T16:13:24.041Z,2.33
2019-05-22T16:15:55.658Z,2.40
2019-05-22T16:18:29.369Z,2.33
2019-05-22T16:21:01.692Z,2.30
2019-05-22T16:23:33.379Z,2.60
2019-05-22T16:26:04.517Z,2.10
2019-05-22T16:28:36.417Z,2.43
2019-05-22T16:31:08.396Z,2.30
2019-05-22T16:33:38.941Z,2.30
2019-05-22T16:36:07.800Z,2.77
2019-05-22T16:38:38.107Z,2.27
2019-05-22T16:41:07.603Z,2.57
2019-05-22T16:43:49.039Z,2.83
2019-05-22T16:46:10.283Z,2.60
2019-05-22T16:48:39.896Z,2.33
2019-05-22T16:51:09.890Z,2.17
2019-05-22T16:53:39.851Z,2.77
2019-05-22T16:56:08.629Z,2.77
2019-05-22T16:58:37.635Z,2.90
2019-05-22T17:01:09.157Z,2.37
2019-05-22T17:03:38.335Z,2.57
2019-05-22T17:06:07.219Z,2.70
2019-05-22T17:08:37.140Z,3.00
2019-05-22T17:11:07.329Z,3.67
2019-05-22T17:13:37.012Z,2.90
2019-05-22T17:16:07.239Z,2.30
2019-05-22T17:18:46.716Z,2.70
2019-05-22T17:21:06.931Z,2.43
2019-05-22T17:23:35.640Z,2.60
2019-05-22T17:26:05.226Z,2.10
2019-05-22T17:28:34.497Z,2.50
2019-05-22T17:31:03.788Z,2.60
2019-05-22T17:33:34.005Z,2.20
2019-05-22T17:36:05.703Z,2.73
2019-05-22T17:38:35.186Z,2.63
2019-05-22T17:41:04.704Z,2.57
2019-05-22T17:43:34.139Z,2.63
2019-05-22T17:46:04.790Z,2.90
2019-05-22T17:48:33.722Z,2.43
2019-05-22T17:51:02.707Z,3.30
2019-05-22T17:53:31.325Z,2.63
2019-05-22T17:55:59.884Z,2.13
2019-05-22T17:58:30.165Z,2.63
2019-05-22T18:00:59.133Z,2.10
2019-05-22T18:03:28.176Z,2.57
2019-05-22T18:05:57.327Z,2.83
2019-05-22T18:08:26.320Z,2.53
2019-05-22T18:10:55.371Z,2.80
2019-05-22T18:13:23.824Z,2.50
2019-05-22T18:15:52.456Z,2.80
2019-05-22T18:18:21.096Z,2.53
2019-05-22T18:20:49.883Z,2.50
2019-05-22T18:23:18.924Z,2.37
2019-05-22T18:25:47.571Z,3.07
2019-05-22T18:28:16.191Z,2.83
2019-05-22T18:30:44.766Z,2.90
2019-05-22T18:33:15.392Z,2.63
2019-05-22T18:35:43.918Z,2.83
2019-05-22T18:38:12.486Z,2.80
2019-05-22T18:40:41.114Z,2.67
2019-05-22T18:43:10.042Z,2.93
2019-05-22T18:45:39.222Z,3.37
2019-05-22T18:48:08.482Z,2.87
2019-05-22T18:50:37.377Z,2.80
2019-05-22T18:53:06.406Z,3.87
2019-05-22T18:55:34.923Z,3.20
2019-05-22T18:58:03.385Z,3.43
2019-05-22T19:00:33.687Z,2.80
2019-05-22T19:03:02.630Z,3.60
2019-05-22T19:05:32.742Z,3.10
2019-05-22T19:08:01.850Z,3.00
2019-05-22T19:10:31.283Z,3.57
2019-05-22T19:13:00.304Z,3.30
2019-05-22T19:15:29.906Z,3.83
2019-05-22T19:17:58.596Z,4.17
2019-05-22T19:20:27.276Z,3.90
2019-05-22T19:23:00.715Z,3.77
2019-05-22T19:25:26.255Z,3.03
2019-05-22T19:27:55.603Z,2.67
2019-05-22T19:30:24.686Z,2.90
2019-05-22T19:32:53.310Z,3.20
2019-05-22T19:35:21.854Z,3.40
2019-05-22T19:37:51.155Z,3.87
2019-05-22T19:40:19.948Z,3.47
2019-05-22T19:42:48.766Z,3.97
2019-05-22T19:45:19.128Z,2.90
2019-05-22T19:47:52.842Z,3.40
2019-05-22T19:50:23.870Z,3.10
2019-05-22T19:52:53.825Z,3.10
2019-05-22T19:55:24.023Z,3.13
2019-05-22T19:57:53.116Z,4.20
2019-05-22T20:00:24.536Z,3.47
2019-05-22T20:02:54.374Z,3.07
2019-05-22T20:05:24.029Z,3.17
2019-05-22T20:07:53.344Z,3.10
2019-05-22T20:10:22.392Z,3.53
2019-05-22T20:12:50.877Z,3.40
2019-05-22T20:15:19.843Z,3.63
2019-05-22T20:17:48.459Z,3.93
2019-05-22T20:20:19.551Z,4.30
2019-05-22T20:22:48.106Z,3.87
2019-05-22T20:25:19.326Z,3.80
2019-05-22T20:27:48.027Z,3.93
2019-05-22T20:30:20.115Z,3.30
2019-05-22T20:32:49.302Z,3.53
2019-05-22T20:35:18.806Z,3.97
2019-05-22T20:37:47.951Z,3.50
2019-05-22T20:40:19.261Z,3.73
2019-05-22T20:42:48.042Z,4.20
2019-05-22T20:45:21.047Z,4.00
2019-05-22T20:47:54.331Z,4.43
2019-05-22T20:50:27.007Z,3.93
2019-05-22T20:52:55.615Z,4.00
2019-05-22T20:55:24.134Z,3.87
2019-05-22T20:57:53.082Z,3.90
2019-05-22T21:00:23.233Z,3.97
2019-05-22T21:02:54.866Z,4.37
2019-05-22T21:05:25.413Z,4.87
2019-05-22T21:07:57.368Z,4.93
2019-05-22T21:10:27.024Z,4.80
2019-05-22T21:12:57.610Z,4.43
2019-05-22T21:15:27.779Z,4.30
2019-05-22T21:17:56.463Z,4.77
2019-05-22T21:20:26.902Z,4.90
2019-05-22T21:22:55.494Z,4.63
2019-05-22T21:25:24.949Z,5.13
2019-05-22T21:27:53.980Z,6.40
2019-05-22T21:30:24.195Z,5.37
2019-05-22T21:32:52.897Z,5.67
2019-05-22T21:35:22.652Z,5.57
2019-05-22T21:37:51.132Z,5.67
2019-05-22T21:40:22.280Z,6.72
2019-05-22T21:42:52.643Z,5.83
2019-05-22T21:45:21.532Z,5.93
2019-05-22T21:47:50.503Z,5.87
2019-05-22T21:50:19.852Z,6.07
2019-05-22T21:52:48.386Z,6.87
2019-05-22T21:55:19.233Z,6.13
2019-05-22T21:57:47.744Z,5.83
2019-05-22T22:00:36.127Z,6.40
2019-05-22T22:03:05.996Z,6.07
2019-05-22T22:05:34.519Z,6.50
2019-05-22T22:08:03.097Z,7.07
2019-05-22T22:10:31.793Z,5.87
2019-05-22T22:13:01.603Z,6.13
2019-05-22T22:15:31.589Z,5.97
2019-05-22T22:18:00.260Z,5.93
2019-05-22T22:20:29.100Z,6.60
2019-05-22T22:22:57.723Z,6.30
2019-05-22T22:25:26.263Z,6.47
2019-05-22T22:27:54.988Z,6.20
2019-05-22T22:30:25.104Z,5.87
2019-05-22T22:32:55.693Z,6.87
2019-05-22T22:35:25.195Z,6.57
2019-05-22T22:37:54.960Z,6.37
2019-05-22T22:40:27.223Z,6.57
2019-05-22T22:42:55.858Z,7.47
2019-05-22T22:45:41.657Z,7.13
2019-05-22T22:48:11.883Z,6.97
2019-05-22T22:50:41.199Z,7.40
2019-05-22T22:53:10.681Z,7.33
2019-05-22T22:55:40.324Z,7.47
2019-05-22T22:58:17.072Z,7.77
2019-05-22T23:00:45.963Z,7.77
2019-05-22T23:17:11.140Z,8.30
2019-05-22T23:19:42.562Z,8.73
2019-05-22T23:22:19.588Z,8.40
2019-05-22T23:24:49.351Z,8.83
2019-05-22T23:27:19.425Z,8.40
2019-05-22T23:29:49.007Z,8.67
2019-05-22T23:32:18.559Z,7.67
2019-05-22T23:34:48.274Z,8.20
2019-05-22T23:37:21.683Z,8.53
2019-05-22T23:39:53.086Z,8.17
2019-05-22T23:42:25.692Z,8.33
2019-05-22T23:44:57.064Z,7.53
2019-05-22T23:47:26.032Z,8.40
2019-05-22T23:49:54.523Z,8.00
2019-05-22T23:52:24.020Z,8.50
2019-05-22T23:54:53.914Z,8.47
2019-05-22T23:57:24.238Z,9.20
2019-05-22T23:59:54.366Z,8.57
